sensor_id;sensor_type;location;lat;lon;timestamp;temperature;humidity
8105;DHT22;4095;48.942;9.104;2022-09-06T00:00:23;20.90;96.30
8105;DHT22;4095;48.942;9.104;2022-09-06T00:02:49;20.80;96.40
8105;DHT22;4095;48.942;9.104;2022-09-06T00:05:14;20.80;96.30
8105;DHT22;4095;48.942;9.104;2022-09-06T00:07:40;20.70;96.50
8105;DHT22;4095;48.942;9.104;2022-09-06T00:10:07;20.70;96.50
8105;DHT22;4095;48.942;9.104;2022-09-06T00:12:32;20.70;96.60
8105;DHT22;4095;48.942;9.104;2022-09-06T00:14:58;20.60;96.60
8105;DHT22;4095;48.942;9.104;2022-09-06T00:17:24;20.60;96.70
8105;DHT22;4095;48.942;9.104;2022-09-06T00:19:49;20.60;96.70
8105;DHT22;4095;48.942;9.104;2022-09-06T00:22:15;20.50;96.80
8105;DHT22;4095;48.942;9.104;2022-09-06T00:24:40;20.50;96.80
8105;DHT22;4095;48.942;9.104;2022-09-06T00:27:07;20.50;96.90
8105;DHT22;4095;48.942;9.104;2022-09-06T00:29:33;20.40;96.90
8105;DHT22;4095;48.942;9.104;2022-09-06T00:31:59;20.40;97.00
8105;DHT22;4095;48.942;9.104;2022-09-06T00:34:26;20.40;97.00
8105;DHT22;4095;48.942;9.104;2022-09-06T00:36:52;20.40;96.90
8105;DHT22;4095;48.942;9.104;2022-09-06T00:39:18;20.30;96.90
8105;DHT22;4095;48.942;9.104;2022-09-06T00:41:44;20.30;97.10
8105;DHT22;4095;48.942;9.104;2022-09-06T00:44:10;20.20;97.10
8105;DHT22;4095;48.942;9.104;2022-09-06T00:46:37;20.10;97.20
8105;DHT22;4095;48.942;9.104;2022-09-06T00:49:28;20.10;97.20
8105;DHT22;4095;48.942;9.104;2022-09-06T00:52:04;20.00;97.30
8105;DHT22;4095;48.942;9.104;2022-09-06T00:54:30;20.10;97.30
8105;DHT22;4095;48.942;9.104;2022-09-06T00:56:57;20.00;97.20
8105;DHT22;4095;48.942;9.104;2022-09-06T00:59:28;20.10;97.30
8105;DHT22;4095;48.942;9.104;2022-09-06T01:01:55;20.10;97.20
8105;DHT22;4095;48.942;9.104;2022-09-06T01:04:21;20.10;97.30
8105;DHT22;4095;48.942;9.104;2022-09-06T01:12:24;20.00;97.60
8105;DHT22;4095;48.942;9.104;2022-09-06T01:20:22;20.00;97.80
8105;DHT22;4095;48.942;9.104;2022-09-06T01:28:46;20.10;97.70
8105;DHT22;4095;48.942;9.104;2022-09-06T01:34:06;20.10;97.70
8105;DHT22;4095;48.942;9.104;2022-09-06T01:36:41;20.10;97.60
8105;DHT22;4095;48.942;9.104;2022-09-06T01:39:26;20.10;97.80
8105;DHT22;4095;48.942;9.104;2022-09-06T01:41:56;20.00;97.90
8105;DHT22;4095;48.942;9.104;2022-09-06T01:44:25;20.00;97.80
8105;DHT22;4095;48.942;9.104;2022-09-06T01:55:31;20.10;97.90
8105;DHT22;4095;48.942;9.104;2022-09-06T02:00:45;20.10;98.00
8105;DHT22;4095;48.942;9.104;2022-09-06T02:03:29;20.10;98.10
8105;DHT22;4095;48.942;9.104;2022-09-06T02:08:32;20.10;98.40
8105;DHT22;4095;48.942;9.104;2022-09-06T02:11:00;20.10;98.30
8105;DHT22;4095;48.942;9.104;2022-09-06T02:13:37;20.10;98.40
8105;DHT22;4095;48.942;9.104;2022-09-06T02:16:06;20.10;98.50
8105;DHT22;4095;48.942;9.104;2022-09-06T02:18:37;20.20;98.30
8105;DHT22;4095;48.942;9.104;2022-09-06T02:21:05;20.30;98.60
8105;DHT22;4095;48.942;9.104;2022-09-06T02:23:35;20.40;98.60
8105;DHT22;4095;48.942;9.104;2022-09-06T02:26:36;20.50;98.40
8105;DHT22;4095;48.942;9.104;2022-09-06T02:29:04;20.50;99.30
8105;DHT22;4095;48.942;9.104;2022-09-06T02:33:58;20.40;99.90
8105;DHT22;4095;48.942;9.104;2022-09-06T02:36:24;20.50;99.90
8105;DHT22;4095;48.942;9.104;2022-09-06T02:38:52;20.40;99.90
8105;DHT22;4095;48.942;9.104;2022-09-06T02:41:20;20.40;99.90
8105;DHT22;4095;48.942;9.104;2022-09-06T02:43:47;20.40;99.90
8105;DHT22;4095;48.942;9.104;2022-09-06T02:46:14;20.40;99.90
8105;DHT22;4095;48.942;9.104;2022-09-06T02:48:39;20.30;99.90
8105;DHT22;4095;48.942;9.104;2022-09-06T02:51:06;20.20;99.90
8105;DHT22;4095;48.942;9.104;2022-09-06T02:53:32;20.20;99.90
8105;DHT22;4095;48.942;9.104;2022-09-06T02:55:58;20.20;99.90
8105;DHT22;4095;48.942;9.104;2022-09-06T02:58:24;20.20;99.90
8105;DHT22;4095;48.942;9.104;2022-09-06T03:00:50;20.10;99.90
8105;DHT22;4095;48.942;9.104;2022-09-06T03:03:16;20.30;99.90
8105;DHT22;4095;48.942;9.104;2022-09-06T03:05:48;20.30;99.90
8105;DHT22;4095;48.942;9.104;2022-09-06T03:08:16;20.30;99.90
8105;DHT22;4095;48.942;9.104;2022-09-06T03:10:54;20.40;99.90
8105;DHT22;4095;48.942;9.104;2022-09-06T03:13:21;20.30;99.90
8105;DHT22;4095;48.942;9.104;2022-09-06T03:15:51;20.40;99.90
8105;DHT22;4095;48.942;9.104;2022-09-06T03:18:17;20.40;99.90
8105;DHT22;4095;48.942;9.104;2022-09-06T03:20:42;20.40;99.90
8105;DHT22;4095;48.942;9.104;2022-09-06T03:23:08;20.30;99.90
8105;DHT22;4095;48.942;9.104;2022-09-06T03:25:34;20.20;99.90
8105;DHT22;4095;48.942;9.104;2022-09-06T03:28:00;20.20;99.90
8105;DHT22;4095;48.942;9.104;2022-09-06T03:30:26;20.20;99.90
8105;DHT22;4095;48.942;9.104;2022-09-06T03:32:51;20.30;99.90
8105;DHT22;4095;48.942;9.104;2022-09-06T03:35:17;20.30;99.90
8105;DHT22;4095;48.942;9.104;2022-09-06T03:37:43;20.30;99.90
8105;DHT22;4095;48.942;9.104;2022-09-06T03:40:09;20.30;99.90
8105;DHT22;4095;48.942;9.104;2022-09-06T03:42:35;20.30;99.90
8105;DHT22;4095;48.942;9.104;2022-09-06T03:45:00;20.30;99.90
8105;DHT22;4095;48.942;9.104;2022-09-06T03:47:26;20.30;99.90
8105;DHT22;4095;48.942;9.104;2022-09-06T03:49:51;20.30;99.90
8105;DHT22;4095;48.942;9.104;2022-09-06T03:52:17;20.30;99.90
8105;DHT22;4095;48.942;9.104;2022-09-06T03:54:43;20.20;99.90
8105;DHT22;4095;48.942;9.104;2022-09-06T03:57:09;20.10;99.90
8105;DHT22;4095;48.942;9.104;2022-09-06T03:59:34;20.20;99.90
8105;DHT22;4095;48.942;9.104;2022-09-06T04:02:00;20.20;99.90
8105;DHT22;4095;48.942;9.104;2022-09-06T04:04:26;20.10;99.90
8105;DHT22;4095;48.942;9.104;2022-09-06T04:06:52;20.10;99.90
8105;DHT22;4095;48.942;9.104;2022-09-06T04:09:17;20.10;99.90
8105;DHT22;4095;48.942;9.104;2022-09-06T04:11:43;20.20;99.90
8105;DHT22;4095;48.942;9.104;2022-09-06T04:14:08;20.20;99.90
8105;DHT22;4095;48.942;9.104;2022-09-06T04:16:34;20.20;99.90
8105;DHT22;4095;48.942;9.104;2022-09-06T04:19:00;20.20;99.90
8105;DHT22;4095;48.942;9.104;2022-09-06T04:21:27;20.20;99.90
8105;DHT22;4095;48.942;9.104;2022-09-06T04:23:52;20.20;99.90
8105;DHT22;4095;48.942;9.104;2022-09-06T04:26:18;20.30;99.90
8105;DHT22;4095;48.942;9.104;2022-09-06T04:28:44;20.30;99.90
8105;DHT22;4095;48.942;9.104;2022-09-06T04:31:09;20.40;99.90
8105;DHT22;4095;48.942;9.104;2022-09-06T04:33:36;20.40;99.90
8105;DHT22;4095;48.942;9.104;2022-09-06T04:36:04;20.40;99.90
8105;DHT22;4095;48.942;9.104;2022-09-06T04:38:35;20.40;99.90
8105;DHT22;4095;48.942;9.104;2022-09-06T04:41:01;20.30;99.90
8105;DHT22;4095;48.942;9.104;2022-09-06T04:43:26;20.30;99.90
8105;DHT22;4095;48.942;9.104;2022-09-06T04:45:52;20.40;99.90
8105;DHT22;4095;48.942;9.104;2022-09-06T04:48:18;20.40;99.90
8105;DHT22;4095;48.942;9.104;2022-09-06T04:50:44;20.30;99.90
8105;DHT22;4095;48.942;9.104;2022-09-06T04:53:09;20.30;99.90
8105;DHT22;4095;48.942;9.104;2022-09-06T04:55:36;20.30;99.90
8105;DHT22;4095;48.942;9.104;2022-09-06T04:58:02;20.30;99.90
8105;DHT22;4095;48.942;9.104;2022-09-06T05:00:33;20.30;99.90
8105;DHT22;4095;48.942;9.104;2022-09-06T05:03:00;20.30;99.90
8105;DHT22;4095;48.942;9.104;2022-09-06T05:05:25;20.20;99.90
8105;DHT22;4095;48.942;9.104;2022-09-06T05:07:52;20.20;99.90
8105;DHT22;4095;48.942;9.104;2022-09-06T05:10:18;20.20;99.90
8105;DHT22;4095;48.942;9.104;2022-09-06T05:12:50;20.20;99.90
8105;DHT22;4095;48.942;9.104;2022-09-06T05:15:17;20.20;99.90
8105;DHT22;4095;48.942;9.104;2022-09-06T05:17:43;20.30;99.90
8105;DHT22;4095;48.942;9.104;2022-09-06T05:20:10;20.30;99.90
8105;DHT22;4095;48.942;9.104;2022-09-06T05:22:36;20.20;99.90
8105;DHT22;4095;48.942;9.104;2022-09-06T05:25:02;20.20;99.90
8105;DHT22;4095;48.942;9.104;2022-09-06T05:27:27;20.30;99.90
8105;DHT22;4095;48.942;9.104;2022-09-06T05:29:53;20.30;99.90
8105;DHT22;4095;48.942;9.104;2022-09-06T05:32:18;20.30;99.90
8105;DHT22;4095;48.942;9.104;2022-09-06T05:34:44;20.30;99.90
8105;DHT22;4095;48.942;9.104;2022-09-06T05:37:10;20.30;99.90
8105;DHT22;4095;48.942;9.104;2022-09-06T05:39:35;20.30;99.90
8105;DHT22;4095;48.942;9.104;2022-09-06T05:42:01;20.30;99.90
8105;DHT22;4095;48.942;9.104;2022-09-06T05:44:32;20.40;99.90
8105;DHT22;4095;48.942;9.104;2022-09-06T05:46:58;20.40;99.90
8105;DHT22;4095;48.942;9.104;2022-09-06T05:49:23;20.40;99.90
8105;DHT22;4095;48.942;9.104;2022-09-06T05:51:50;20.40;99.90
8105;DHT22;4095;48.942;9.104;2022-09-06T05:54:16;20.50;99.90
8105;DHT22;4095;48.942;9.104;2022-09-06T05:56:42;20.50;99.90
8105;DHT22;4095;48.942;9.104;2022-09-06T05:59:07;20.50;99.90
8105;DHT22;4095;48.942;9.104;2022-09-06T06:01:33;20.50;99.90
8105;DHT22;4095;48.942;9.104;2022-09-06T06:04:03;20.50;99.90
8105;DHT22;4095;48.942;9.104;2022-09-06T06:06:31;20.50;99.90
8105;DHT22;4095;48.942;9.104;2022-09-06T06:08:57;20.50;99.90
8105;DHT22;4095;48.942;9.104;2022-09-06T06:11:24;20.50;99.90
8105;DHT22;4095;48.942;9.104;2022-09-06T06:13:50;20.50;99.90
8105;DHT22;4095;48.942;9.104;2022-09-06T06:16:18;20.50;99.90
8105;DHT22;4095;48.942;9.104;2022-09-06T06:18:44;20.60;99.90
8105;DHT22;4095;48.942;9.104;2022-09-06T06:21:16;20.60;99.90
8105;DHT22;4095;48.942;9.104;2022-09-06T06:23:43;20.70;99.90
8105;DHT22;4095;48.942;9.104;2022-09-06T06:26:10;20.70;99.90
8105;DHT22;4095;48.942;9.104;2022-09-06T06:28:36;20.80;99.90
8105;DHT22;4095;48.942;9.104;2022-09-06T06:31:03;20.80;99.90
8105;DHT22;4095;48.942;9.104;2022-09-06T06:33:29;20.90;99.90
8105;DHT22;4095;48.942;9.104;2022-09-06T06:38:39;21.00;99.90
8105;DHT22;4095;48.942;9.104;2022-09-06T06:41:06;21.00;99.90
8105;DHT22;4095;48.942;9.104;2022-09-06T06:43:32;21.10;99.90
8105;DHT22;4095;48.942;9.104;2022-09-06T06:48:35;21.20;99.90
8105;DHT22;4095;48.942;9.104;2022-09-06T06:51:01;21.30;99.90
8105;DHT22;4095;48.942;9.104;2022-09-06T06:53:27;21.30;99.90
8105;DHT22;4095;48.942;9.104;2022-09-06T06:55:52;21.40;99.90
8105;DHT22;4095;48.942;9.104;2022-09-06T06:58:19;21.50;99.90
8105;DHT22;4095;48.942;9.104;2022-09-06T07:00:45;21.60;99.90
8105;DHT22;4095;48.942;9.104;2022-09-06T07:03:11;21.60;99.90
8105;DHT22;4095;48.942;9.104;2022-09-06T07:05:38;21.70;99.90
8105;DHT22;4095;48.942;9.104;2022-09-06T07:08:05;21.70;99.90
8105;DHT22;4095;48.942;9.104;2022-09-06T07:10:31;21.70;99.90
8105;DHT22;4095;48.942;9.104;2022-09-06T07:12:57;21.80;99.90
8105;DHT22;4095;48.942;9.104;2022-09-06T07:15:23;21.80;99.90
8105;DHT22;4095;48.942;9.104;2022-09-06T07:17:49;21.80;99.90
8105;DHT22;4095;48.942;9.104;2022-09-06T07:20:15;21.90;99.90
8105;DHT22;4095;48.942;9.104;2022-09-06T07:22:41;21.90;99.90
8105;DHT22;4095;48.942;9.104;2022-09-06T07:25:07;22.00;99.90
8105;DHT22;4095;48.942;9.104;2022-09-06T07:27:33;22.00;99.90
8105;DHT22;4095;48.942;9.104;2022-09-06T07:29:59;22.10;99.90
8105;DHT22;4095;48.942;9.104;2022-09-06T07:32:25;22.20;99.90
8105;DHT22;4095;48.942;9.104;2022-09-06T07:34:50;22.30;99.90
8105;DHT22;4095;48.942;9.104;2022-09-06T07:37:16;22.30;99.90
8105;DHT22;4095;48.942;9.104;2022-09-06T07:39:41;22.40;99.90
8105;DHT22;4095;48.942;9.104;2022-09-06T07:42:07;22.40;99.90
8105;DHT22;4095;48.942;9.104;2022-09-06T07:44:33;22.50;99.90
8105;DHT22;4095;48.942;9.104;2022-09-06T07:46:59;22.70;99.90
8105;DHT22;4095;48.942;9.104;2022-09-06T07:49:33;22.80;99.90
8105;DHT22;4095;48.942;9.104;2022-09-06T07:51:59;22.90;99.90
8105;DHT22;4095;48.942;9.104;2022-09-06T07:54:24;22.90;99.90
8105;DHT22;4095;48.942;9.104;2022-09-06T07:56:50;23.00;99.90
8105;DHT22;4095;48.942;9.104;2022-09-06T07:59:16;23.10;99.90
8105;DHT22;4095;48.942;9.104;2022-09-06T08:01:41;23.10;99.90
8105;DHT22;4095;48.942;9.104;2022-09-06T08:04:12;23.20;99.90
8105;DHT22;4095;48.942;9.104;2022-09-06T08:06:41;23.30;99.90
8105;DHT22;4095;48.942;9.104;2022-09-06T08:09:08;23.40;99.90
8105;DHT22;4095;48.942;9.104;2022-09-06T08:11:35;23.50;99.90
8105;DHT22;4095;48.942;9.104;2022-09-06T08:14:03;23.50;99.90
8105;DHT22;4095;48.942;9.104;2022-09-06T08:16:30;23.70;99.90
8105;DHT22;4095;48.942;9.104;2022-09-06T08:18:58;23.80;99.90
8105;DHT22;4095;48.942;9.104;2022-09-06T08:21:25;23.90;99.90
8105;DHT22;4095;48.942;9.104;2022-09-06T08:23:56;24.00;99.90
8105;DHT22;4095;48.942;9.104;2022-09-06T08:26:23;24.10;99.90
8105;DHT22;4095;48.942;9.104;2022-09-06T08:29:00;24.10;99.90
8105;DHT22;4095;48.942;9.104;2022-09-06T08:31:28;24.20;99.90
8105;DHT22;4095;48.942;9.104;2022-09-06T08:33:54;24.20;99.40
8105;DHT22;4095;48.942;9.104;2022-09-06T08:36:20;24.40;99.50
8105;DHT22;4095;48.942;9.104;2022-09-06T08:38:46;24.50;98.80
8105;DHT22;4095;48.942;9.104;2022-09-06T08:41:25;24.60;99.20
8105;DHT22;4095;48.942;9.104;2022-09-06T08:43:56;24.70;99.90
8105;DHT22;4095;48.942;9.104;2022-09-06T08:46:31;24.80;98.90
8105;DHT22;4095;48.942;9.104;2022-09-06T08:48:58;24.90;98.50
8105;DHT22;4095;48.942;9.104;2022-09-06T08:54:02;25.00;98.50
8105;DHT22;4095;48.942;9.104;2022-09-06T08:56:34;25.10;98.80
8105;DHT22;4095;48.942;9.104;2022-09-06T08:59:11;25.20;98.70
8105;DHT22;4095;48.942;9.104;2022-09-06T09:02:04;25.20;97.80
8105;DHT22;4095;48.942;9.104;2022-09-06T09:04:34;25.30;97.90
8105;DHT22;4095;48.942;9.104;2022-09-06T09:09:53;25.40;98.40
8105;DHT22;4095;48.942;9.104;2022-09-06T09:12:22;25.40;97.60
8105;DHT22;4095;48.942;9.104;2022-09-06T09:14:52;25.40;98.00
8105;DHT22;4095;48.942;9.104;2022-09-06T09:17:24;25.40;98.10
8105;DHT22;4095;48.942;9.104;2022-09-06T09:19:50;25.40;98.00
8105;DHT22;4095;48.942;9.104;2022-09-06T09:22:18;25.40;98.20
8105;DHT22;4095;48.942;9.104;2022-09-06T09:24:45;25.40;98.40
8105;DHT22;4095;48.942;9.104;2022-09-06T09:27:12;25.40;98.10
8105;DHT22;4095;48.942;9.104;2022-09-06T09:32:34;25.60;98.70
8105;DHT22;4095;48.942;9.104;2022-09-06T09:42:48;25.70;98.40
8105;DHT22;4095;48.942;9.104;2022-09-06T09:45:33;25.70;97.90
8105;DHT22;4095;48.942;9.104;2022-09-06T09:48:33;25.70;97.40
8105;DHT22;4095;48.942;9.104;2022-09-06T09:51:19;25.90;98.00
8105;DHT22;4095;48.942;9.104;2022-09-06T09:56:43;26.20;98.00
8105;DHT22;4095;48.942;9.104;2022-09-06T09:59:36;26.30;97.70
8105;DHT22;4095;48.942;9.104;2022-09-06T10:04:51;26.50;97.20
8105;DHT22;4095;48.942;9.104;2022-09-06T10:07:19;26.60;97.50
8105;DHT22;4095;48.942;9.104;2022-09-06T10:09:47;26.60;97.10
8105;DHT22;4095;48.942;9.104;2022-09-06T10:12:40;26.70;96.70
8105;DHT22;4095;48.942;9.104;2022-09-06T10:15:11;26.70;96.40
8105;DHT22;4095;48.942;9.104;2022-09-06T10:17:55;26.80;96.90
8105;DHT22;4095;48.942;9.104;2022-09-06T10:20:29;26.90;96.60
8105;DHT22;4095;48.942;9.104;2022-09-06T10:26:03;27.20;96.30
8105;DHT22;4095;48.942;9.104;2022-09-06T10:28:33;27.20;95.80
8105;DHT22;4095;48.942;9.104;2022-09-06T10:34:01;27.30;95.00
8105;DHT22;4095;48.942;9.104;2022-09-06T10:36:49;27.30;95.20
8105;DHT22;4095;48.942;9.104;2022-09-06T10:42:41;27.30;95.50
8105;DHT22;4095;48.942;9.104;2022-09-06T10:45:22;27.30;95.20
8105;DHT22;4095;48.942;9.104;2022-09-06T10:50:50;27.30;95.00
8105;DHT22;4095;48.942;9.104;2022-09-06T10:56:10;27.30;95.20
8105;DHT22;4095;48.942;9.104;2022-09-06T10:58:44;27.40;95.10
8105;DHT22;4095;48.942;9.104;2022-09-06T11:01:22;27.40;94.80
8105;DHT22;4095;48.942;9.104;2022-09-06T11:03:49;27.40;95.20
8105;DHT22;4095;48.942;9.104;2022-09-06T11:06:16;27.40;94.40
8105;DHT22;4095;48.942;9.104;2022-09-06T11:08:50;27.30;94.60
8105;DHT22;4095;48.942;9.104;2022-09-06T11:11:22;27.40;94.50
8105;DHT22;4095;48.942;9.104;2022-09-06T11:13:48;27.40;94.50
8105;DHT22;4095;48.942;9.104;2022-09-06T11:16:23;27.50;94.80
8105;DHT22;4095;48.942;9.104;2022-09-06T11:18:57;27.50;94.60
8105;DHT22;4095;48.942;9.104;2022-09-06T11:21:51;27.60;94.80
8105;DHT22;4095;48.942;9.104;2022-09-06T11:24:43;27.70;95.00
8105;DHT22;4095;48.942;9.104;2022-09-06T11:29:57;27.80;94.30
8105;DHT22;4095;48.942;9.104;2022-09-06T11:32:45;27.90;94.00
8105;DHT22;4095;48.942;9.104;2022-09-06T11:35:31;28.00;94.80
8105;DHT22;4095;48.942;9.104;2022-09-06T11:40:35;28.20;93.20
8105;DHT22;4095;48.942;9.104;2022-09-06T11:53:21;28.60;92.90
8105;DHT22;4095;48.942;9.104;2022-09-06T11:55:50;28.70;92.20
8105;DHT22;4095;48.942;9.104;2022-09-06T12:00:43;28.90;92.20
8105;DHT22;4095;48.942;9.104;2022-09-06T12:03:58;29.00;91.60
8105;DHT22;4095;48.942;9.104;2022-09-06T12:08:39;29.00;90.20
8105;DHT22;4095;48.942;9.104;2022-09-06T12:19:58;29.30;91.00
8105;DHT22;4095;48.942;9.104;2022-09-06T12:27:36;29.30;90.10
8105;DHT22;4095;48.942;9.104;2022-09-06T12:32:34;29.30;90.30
8105;DHT22;4095;48.942;9.104;2022-09-06T12:35:03;29.30;90.30
8105;DHT22;4095;48.942;9.104;2022-09-06T12:37:34;29.30;89.30
8105;DHT22;4095;48.942;9.104;2022-09-06T12:40:03;29.30;89.40
8105;DHT22;4095;48.942;9.104;2022-09-06T12:42:29;29.30;89.40
8105;DHT22;4095;48.942;9.104;2022-09-06T12:44:56;29.40;89.10
8105;DHT22;4095;48.942;9.104;2022-09-06T12:47:30;29.30;89.90
8105;DHT22;4095;48.942;9.104;2022-09-06T12:50:13;29.40;89.80
8105;DHT22;4095;48.942;9.104;2022-09-06T12:53:00;29.40;89.40
8105;DHT22;4095;48.942;9.104;2022-09-06T12:55:36;29.40;88.90
8105;DHT22;4095;48.942;9.104;2022-09-06T12:58:07;29.50;90.00
8105;DHT22;4095;48.942;9.104;2022-09-06T13:00:43;29.50;89.90
8105;DHT22;4095;48.942;9.104;2022-09-06T13:03:37;29.50;89.80
8105;DHT22;4095;48.942;9.104;2022-09-06T13:06:05;29.50;89.70
8105;DHT22;4095;48.942;9.104;2022-09-06T13:08:35;29.50;90.10
8105;DHT22;4095;48.942;9.104;2022-09-06T13:11:08;29.40;88.70
8105;DHT22;4095;48.942;9.104;2022-09-06T13:13:35;29.40;89.60
8105;DHT22;4095;48.942;9.104;2022-09-06T13:16:01;29.20;89.20
8105;DHT22;4095;48.942;9.104;2022-09-06T13:18:36;29.20;89.60
8105;DHT22;4095;48.942;9.104;2022-09-06T13:21:07;29.10;89.80
8105;DHT22;4095;48.942;9.104;2022-09-06T13:23:42;29.00;89.50
8105;DHT22;4095;48.942;9.104;2022-09-06T13:26:08;28.90;90.10
8105;DHT22;4095;48.942;9.104;2022-09-06T13:28:34;28.80;90.30
8105;DHT22;4095;48.942;9.104;2022-09-06T13:31:19;28.80;90.70
8105;DHT22;4095;48.942;9.104;2022-09-06T13:33:54;28.80;90.70
8105;DHT22;4095;48.942;9.104;2022-09-06T13:36:31;28.70;91.20
8105;DHT22;4095;48.942;9.104;2022-09-06T13:38:58;28.70;90.90
8105;DHT22;4095;48.942;9.104;2022-09-06T13:44:16;28.70;91.20
8105;DHT22;4095;48.942;9.104;2022-09-06T13:46:42;28.60;91.20
8105;DHT22;4095;48.942;9.104;2022-09-06T13:49:07;28.60;91.00
8105;DHT22;4095;48.942;9.104;2022-09-06T13:51:33;28.50;91.00
8105;DHT22;4095;48.942;9.104;2022-09-06T13:54:07;28.50;91.30
8105;DHT22;4095;48.942;9.104;2022-09-06T13:56:34;28.50;91.50
8105;DHT22;4095;48.942;9.104;2022-09-06T13:59:00;28.40;91.50
8105;DHT22;4095;48.942;9.104;2022-09-06T14:01:26;28.40;91.50
8105;DHT22;4095;48.942;9.104;2022-09-06T14:03:52;28.30;91.20
8105;DHT22;4095;48.942;9.104;2022-09-06T14:06:19;28.30;90.70
8105;DHT22;4095;48.942;9.104;2022-09-06T14:08:44;28.30;90.40
8105;DHT22;4095;48.942;9.104;2022-09-06T14:11:10;28.10;89.70
8105;DHT22;4095;48.942;9.104;2022-09-06T14:13:38;28.00;89.50
8105;DHT22;4095;48.942;9.104;2022-09-06T14:16:03;28.00;89.40
8105;DHT22;4095;48.942;9.104;2022-09-06T14:18:30;27.90;89.50
8105;DHT22;4095;48.942;9.104;2022-09-06T14:20:56;27.90;90.00
8105;DHT22;4095;48.942;9.104;2022-09-06T14:23:24;27.90;90.80
8105;DHT22;4095;48.942;9.104;2022-09-06T14:26:01;27.80;90.00
8105;DHT22;4095;48.942;9.104;2022-09-06T14:28:27;27.80;90.10
8105;DHT22;4095;48.942;9.104;2022-09-06T14:30:55;27.70;90.30
8105;DHT22;4095;48.942;9.104;2022-09-06T14:33:21;27.80;90.40
8105;DHT22;4095;48.942;9.104;2022-09-06T14:35:47;27.70;90.90
8105;DHT22;4095;48.942;9.104;2022-09-06T14:38:13;27.60;90.80
8105;DHT22;4095;48.942;9.104;2022-09-06T14:40:39;27.50;90.90
8105;DHT22;4095;48.942;9.104;2022-09-06T14:43:08;27.50;91.50
8105;DHT22;4095;48.942;9.104;2022-09-06T14:45:35;27.40;92.10
8105;DHT22;4095;48.942;9.104;2022-09-06T14:48:01;27.30;92.40
8105;DHT22;4095;48.942;9.104;2022-09-06T14:50:27;27.30;92.50
8105;DHT22;4095;48.942;9.104;2022-09-06T14:52:53;27.20;92.70
8105;DHT22;4095;48.942;9.104;2022-09-06T14:55:19;27.20;92.90
8105;DHT22;4095;48.942;9.104;2022-09-06T14:57:45;27.10;92.90
8105;DHT22;4095;48.942;9.104;2022-09-06T15:00:11;27.10;92.80
8105;DHT22;4095;48.942;9.104;2022-09-06T15:02:37;27.10;91.80
8105;DHT22;4095;48.942;9.104;2022-09-06T15:05:03;27.00;91.70
8105;DHT22;4095;48.942;9.104;2022-09-06T15:07:30;26.90;91.50
8105;DHT22;4095;48.942;9.104;2022-09-06T15:09:56;26.90;91.60
8105;DHT22;4095;48.942;9.104;2022-09-06T15:12:22;26.80;91.50
8105;DHT22;4095;48.942;9.104;2022-09-06T15:14:48;26.70;91.40
8105;DHT22;4095;48.942;9.104;2022-09-06T15:17:13;26.80;91.80
8105;DHT22;4095;48.942;9.104;2022-09-06T15:19:39;26.80;91.40
8105;DHT22;4095;48.942;9.104;2022-09-06T15:22:05;26.80;91.10
8105;DHT22;4095;48.942;9.104;2022-09-06T15:24:31;26.80;90.70
8105;DHT22;4095;48.942;9.104;2022-09-06T15:26:58;26.80;91.10
8105;DHT22;4095;48.942;9.104;2022-09-06T15:29:24;26.80;91.00
8105;DHT22;4095;48.942;9.104;2022-09-06T15:31:52;26.80;90.90
8105;DHT22;4095;48.942;9.104;2022-09-06T15:34:19;26.80;90.40
8105;DHT22;4095;48.942;9.104;2022-09-06T15:36:45;26.90;89.80
8105;DHT22;4095;48.942;9.104;2022-09-06T15:39:11;26.90;89.40
8105;DHT22;4095;48.942;9.104;2022-09-06T15:41:38;27.00;90.30
8105;DHT22;4095;48.942;9.104;2022-09-06T15:44:13;27.00;89.90
8105;DHT22;4095;48.942;9.104;2022-09-06T15:49:13;27.00;89.70
8105;DHT22;4095;48.942;9.104;2022-09-06T15:51:40;27.00;90.30
8105;DHT22;4095;48.942;9.104;2022-09-06T15:54:06;27.00;88.40
8105;DHT22;4095;48.942;9.104;2022-09-06T15:56:32;27.00;88.80
8105;DHT22;4095;48.942;9.104;2022-09-06T15:58:58;27.00;89.00
8105;DHT22;4095;48.942;9.104;2022-09-06T16:01:25;27.00;89.20
8105;DHT22;4095;48.942;9.104;2022-09-06T16:03:53;27.00;89.40
8105;DHT22;4095;48.942;9.104;2022-09-06T16:06:21;27.00;89.20
8105;DHT22;4095;48.942;9.104;2022-09-06T16:08:50;27.00;89.40
8105;DHT22;4095;48.942;9.104;2022-09-06T16:11:17;27.00;88.50
8105;DHT22;4095;48.942;9.104;2022-09-06T16:13:44;27.00;88.70
8105;DHT22;4095;48.942;9.104;2022-09-06T16:16:12;27.00;88.50
8105;DHT22;4095;48.942;9.104;2022-09-06T16:18:40;26.90;89.60
8105;DHT22;4095;48.942;9.104;2022-09-06T16:23:55;26.90;89.70
8105;DHT22;4095;48.942;9.104;2022-09-06T16:26:22;27.00;89.40
8105;DHT22;4095;48.942;9.104;2022-09-06T16:28:50;26.90;89.00
8105;DHT22;4095;48.942;9.104;2022-09-06T16:31:16;26.90;88.60
8105;DHT22;4095;48.942;9.104;2022-09-06T16:33:42;26.90;88.40
8105;DHT22;4095;48.942;9.104;2022-09-06T16:36:10;26.90;89.00
8105;DHT22;4095;48.942;9.104;2022-09-06T16:38:37;27.00;89.20
8105;DHT22;4095;48.942;9.104;2022-09-06T16:41:21;27.00;89.40
8105;DHT22;4095;48.942;9.104;2022-09-06T16:43:50;27.00;89.10
8105;DHT22;4095;48.942;9.104;2022-09-06T16:46:21;27.00;90.30
8105;DHT22;4095;48.942;9.104;2022-09-06T16:48:57;26.90;91.20
8105;DHT22;4095;48.942;9.104;2022-09-06T16:51:28;26.90;91.40
8105;DHT22;4095;48.942;9.104;2022-09-06T16:53:57;26.90;91.50
8105;DHT22;4095;48.942;9.104;2022-09-06T16:56:25;26.90;91.70
8105;DHT22;4095;48.942;9.104;2022-09-06T16:58:56;26.80;92.00
8105;DHT22;4095;48.942;9.104;2022-09-06T17:01:24;26.90;91.80
8105;DHT22;4095;48.942;9.104;2022-09-06T17:03:50;26.80;92.00
8105;DHT22;4095;48.942;9.104;2022-09-06T17:06:16;26.80;91.80
8105;DHT22;4095;48.942;9.104;2022-09-06T17:08:43;26.80;92.30
8105;DHT22;4095;48.942;9.104;2022-09-06T17:11:15;26.80;93.10
8105;DHT22;4095;48.942;9.104;2022-09-06T17:13:41;26.80;93.20
8105;DHT22;4095;48.942;9.104;2022-09-06T17:16:07;26.80;93.50
8105;DHT22;4095;48.942;9.104;2022-09-06T17:18:52;26.70;94.00
8105;DHT22;4095;48.942;9.104;2022-09-06T17:21:19;26.70;94.30
8105;DHT22;4095;48.942;9.104;2022-09-06T17:23:45;26.60;94.30
8105;DHT22;4095;48.942;9.104;2022-09-06T17:26:11;26.50;94.70
8105;DHT22;4095;48.942;9.104;2022-09-06T17:28:38;26.50;94.60
8105;DHT22;4095;48.942;9.104;2022-09-06T17:31:06;26.50;95.00
8105;DHT22;4095;48.942;9.104;2022-09-06T17:33:33;26.40;95.40
8105;DHT22;4095;48.942;9.104;2022-09-06T17:36:14;26.30;95.50
8105;DHT22;4095;48.942;9.104;2022-09-06T17:38:42;26.20;95.50
8105;DHT22;4095;48.942;9.104;2022-09-06T17:41:21;26.10;95.60
8105;DHT22;4095;48.942;9.104;2022-09-06T17:43:48;26.00;95.30
8105;DHT22;4095;48.942;9.104;2022-09-06T17:46:15;26.00;95.50
8105;DHT22;4095;48.942;9.104;2022-09-06T17:48:40;26.00;96.00
8105;DHT22;4095;48.942;9.104;2022-09-06T17:51:09;25.90;96.10
8105;DHT22;4095;48.942;9.104;2022-09-06T17:53:36;25.80;96.30
8105;DHT22;4095;48.942;9.104;2022-09-06T17:56:06;25.80;96.50
8105;DHT22;4095;48.942;9.104;2022-09-06T17:58:33;25.70;96.40
8105;DHT22;4095;48.942;9.104;2022-09-06T18:01:07;25.70;96.70
8105;DHT22;4095;48.942;9.104;2022-09-06T18:03:33;25.60;96.80
8105;DHT22;4095;48.942;9.104;2022-09-06T18:06:10;25.50;96.90
8105;DHT22;4095;48.942;9.104;2022-09-06T18:08:37;25.40;97.00
8105;DHT22;4095;48.942;9.104;2022-09-06T18:11:15;25.30;97.20
8105;DHT22;4095;48.942;9.104;2022-09-06T18:13:42;25.30;97.40
8105;DHT22;4095;48.942;9.104;2022-09-06T18:16:08;25.20;97.30